Time;durP1;ratioP1;P1;durP2;ratioP2;P2;SDS_P1;SDS_P2;PMS_P1;PMS_P2;Temp;Humidity;BMP_temperature;BMP_pressure;BME280_temperature;BME280_humidity;BME280_pressure;Samples;Min_cycle;Max_cycle;Signal;HPM_P1;HPM_P2
2022/08/26 00:00:45;;;;;;;12.60;8.27;;;21.70;99.90;;;;;;4990588;28;20127;-75
2022/08/26 00:03:12;;;;;;;12.07;6.68;;;21.70;99.90;;;;;;4991045;28;20038;-76
2022/08/26 00:05:39;;;;;;;11.23;7.00;;;21.60;99.90;;;;;;5005871;28;20030;-76
2022/08/26 00:08:05;;;;;;;;;;;21.60;99.90;;;;;;5010890;28;20056;-76
2022/08/26 00:10:31;;;;;;;15.43;6.88;;;21.70;99.90;;;;;;5010155;28;19910;-76
2022/08/26 00:12:57;;;;;;;12.95;7.35;;;21.60;99.90;;;;;;5004270;28;20502;-76
2022/08/26 00:15:23;;;;;;;10.53;7.53;;;21.60;99.90;;;;;;4990631;28;20041;-75
2022/08/26 00:17:50;;;;;;;9.93;6.65;;;21.60;99.90;;;;;;4989034;28;20083;-76
2022/08/26 00:20:17;;;;;;;;;;;21.60;99.90;;;;;;5000752;28;20087;-75
2022/08/26 00:22:43;;;;;;;9.95;6.72;;;21.70;99.90;;;;;;4997239;28;19920;-76
2022/08/26 00:25:09;;;;;;;9.57;6.67;;;21.70;99.90;;;;;;5007460;28;20362;-75
2022/08/26 00:27:35;;;;;;;11.88;6.68;;;21.80;99.90;;;;;;5009090;28;20389;-75
2022/08/26 00:30:05;;;;;;;10.57;6.47;;;21.80;99.90;;;;;;5009366;28;20045;-76
2022/08/26 00:32:31;;;;;;;10.98;6.32;;;21.90;99.90;;;;;;5009658;28;20034;-76
2022/08/26 00:34:56;;;;;;;9.70;6.17;;;22.00;99.90;;;;;;4995376;28;20018;-76
2022/08/26 00:37:22;;;;;;;12.07;6.37;;;22.10;99.90;;;;;;4988654;28;20077;-76
2022/08/26 00:39:48;;;;;;;7.47;5.57;;;22.00;99.90;;;;;;4989455;28;20027;-76
2022/08/26 00:42:13;;;;;;;11.60;6.90;;;22.00;99.90;;;;;;4990602;28;20444;-76
2022/08/26 00:44:39;;;;;;;13.80;6.93;;;22.00;99.90;;;;;;5007670;28;20038;-75
2022/08/26 00:47:09;;;;;;;14.60;7.67;;;22.10;99.90;;;;;;5007774;28;20492;-75
2022/08/26 00:49:40;;;;;;;9.13;6.07;;;22.10;99.90;;;;;;4998939;28;20060;-76
2022/08/26 00:52:10;;;;;;;10.35;6.22;;;22.20;99.90;;;;;;4989440;28;20099;-75
2022/08/26 00:54:44;;;;;;;9.60;5.90;;;22.10;99.90;;;;;;4989226;28;20065;-75
2022/08/26 00:57:13;;;;;;;13.35;6.45;;;22.10;99.90;;;;;;4989429;28;20059;-75
2022/08/26 00:59:41;;;;;;;8.88;5.95;;;22.10;99.90;;;;;;4968514;28;20039;-76
2022/08/26 01:02:07;;;;;;;8.38;5.85;;;22.20;99.90;;;;;;4968538;28;20358;-75
2022/08/26 01:04:35;;;;;;;10.37;6.80;;;22.10;99.90;;;;;;4982467;28;20041;-75
2022/08/26 01:07:02;;;;;;;13.05;6.30;;;22.10;99.90;;;;;;5005610;28;20070;-75
2022/08/26 01:09:28;;;;;;;;;;;22.00;99.90;;;;;;5007166;28;20030;-76
2022/08/26 01:11:56;;;;;;;9.98;5.63;;;22.00;99.90;;;;;;5006978;28;19916;-75
2022/08/26 01:14:25;;;;;;;8.23;6.10;;;22.00;99.90;;;;;;5008137;28;20041;-75
2022/08/26 01:16:50;;;;;;;8.85;5.88;;;21.90;99.90;;;;;;5008812;28;20033;-75
2022/08/26 01:19:28;;;;;;;9.07;6.22;;;21.90;99.90;;;;;;5006749;28;20082;-75
2022/08/26 01:22:01;;;;;;;10.95;6.38;;;21.80;99.90;;;;;;4989051;28;20077;-76
2022/08/26 01:24:29;;;;;;;11.27;6.07;;;21.80;99.90;;;;;;4988969;28;20113;-75
2022/08/26 01:27:03;;;;;;;9.50;5.90;;;21.70;99.90;;;;;;4988924;28;20026;-75
2022/08/26 01:29:31;;;;;;;9.40;6.25;;;21.70;99.90;;;;;;5003338;28;20401;-75
2022/08/26 01:31:57;;;;;;;8.73;6.30;;;21.70;99.90;;;;;;5008249;28;20224;-75
2022/08/26 01:34:29;;;;;;;10.52;6.50;;;21.70;99.90;;;;;;5005860;28;20062;-75
2022/08/26 01:37:08;;;;;;;8.15;5.95;;;21.70;99.90;;;;;;4987168;28;20034;-75
2022/08/26 01:39:35;;;;;;;9.55;6.40;;;21.70;99.90;;;;;;4987532;28;20041;-75
2022/08/26 01:42:02;;;;;;;8.45;6.00;;;21.70;99.90;;;;;;4988486;28;20046;-75
2022/08/26 01:44:31;;;;;;;9.95;6.53;;;21.70;99.90;;;;;;4999844;28;20168;-75
2022/08/26 01:47:00;;;;;;;9.85;6.38;;;21.60;99.90;;;;;;5006886;28;20034;-75
2022/08/26 01:49:27;;;;;;;9.55;6.28;;;21.70;99.90;;;;;;5006115;28;20113;-75
2022/08/26 01:51:55;;;;;;;10.70;5.97;;;21.50;99.90;;;;;;4988779;28;20030;-75
2022/08/26 01:54:22;;;;;;;9.75;6.35;;;21.40;99.90;;;;;;4987274;28;20058;-75
2022/08/26 01:56:49;;;;;;;10.85;6.68;;;21.30;99.90;;;;;;4987339;28;20034;-76
2022/08/26 01:59:18;;;;;;;10.55;5.88;;;21.30;99.90;;;;;;4997437;28;20034;-76
2022/08/26 02:01:45;;;;;;;8.95;6.07;;;21.20;99.90;;;;;;5007850;28;20041;-75
2022/08/26 02:04:23;;;;;;;10.35;5.88;;;21.30;99.90;;;;;;5006530;28;20284;-76
2022/08/26 02:06:49;;;;;;;8.75;5.70;;;21.40;99.90;;;;;;4989836;28;20281;-75
2022/08/26 02:09:16;;;;;;;10.38;6.63;;;21.40;99.90;;;;;;4986869;28;20418;-76
2022/08/26 02:11:42;;;;;;;9.35;5.97;;;21.30;99.90;;;;;;4988189;28;20043;-76
2022/08/26 02:14:12;;;;;;;9.13;5.97;;;21.40;99.90;;;;;;4992807;28;20033;-76
2022/08/26 02:16:45;;;;;;;9.23;6.10;;;21.30;99.90;;;;;;5007866;28;20112;-76
2022/08/26 02:19:17;;;;;;;9.15;5.88;;;21.20;99.90;;;;;;5006352;28;20124;-76
2022/08/26 02:21:45;;;;;;;9.82;5.95;;;21.10;99.90;;;;;;5005002;28;20194;-75
2022/08/26 02:24:15;;;;;;;8.35;5.65;;;21.10;99.90;;;;;;5005833;28;20034;-76
2022/08/26 02:26:42;;;;;;;10.77;6.45;;;21.20;99.90;;;;;;5007467;28;20111;-76
2022/08/26 02:29:25;;;;;;;9.10;5.60;;;21.20;99.90;;;;;;5003025;28;20416;-76
2022/08/26 02:31:51;;;;;;;10.75;6.00;;;21.40;99.90;;;;;;4987918;28;20069;-76
2022/08/26 02:34:30;;;;;;;9.75;5.55;;;21.40;99.90;;;;;;4987987;28;20433;-75
2022/08/26 02:36:57;;;;;;;9.40;5.68;;;21.40;99.90;;;;;;4988919;28;20499;-76
2022/08/26 02:39:23;;;;;;;;;;;21.40;99.90;;;;;;4988090;28;20048;-75
2022/08/26 02:41:49;;;;;;;10.00;5.97;;;21.40;99.90;;;;;;4986266;28;19918;-75
2022/08/26 02:44:16;;;;;;;8.65;6.47;;;21.30;99.90;;;;;;4990831;28;20050;-75
2022/08/26 02:46:41;;;;;;;8.63;6.43;;;21.30;99.90;;;;;;5005880;28;20030;-75
2022/08/26 02:49:07;;;;;;;9.07;5.37;;;21.20;99.90;;;;;;5007255;28;20036;-74
2022/08/26 02:51:33;;;;;;;9.77;5.87;;;21.10;99.90;;;;;;4995786;28;20073;-75
2022/08/26 02:53:58;;;;;;;9.40;6.60;;;21.10;99.90;;;;;;4986444;28;20068;-75
2022/08/26 02:56:24;;;;;;;9.57;6.23;;;21.10;99.90;;;;;;4987529;28;20038;-75
2022/08/26 02:58:50;;;;;;;9.57;6.90;;;21.00;99.90;;;;;;4987772;28;20099;-76
2022/08/26 03:01:30;;;;;;;10.73;6.70;;;21.00;99.90;;;;;;5004804;28;20117;-75
2022/08/26 03:03:57;;;;;;;10.30;6.75;;;21.00;99.90;;;;;;5006994;28;20051;-76
2022/08/26 03:06:23;;;;;;;11.63;5.95;;;20.90;99.90;;;;;;4998998;28;20091;-75
2022/08/26 03:08:49;;;;;;;9.95;5.95;;;20.80;99.90;;;;;;4987514;28;20053;-75
2022/08/26 03:11:16;;;;;;;9.43;6.13;;;20.70;99.90;;;;;;4987787;28;20061;-75
2022/08/26 03:13:41;;;;;;;11.10;6.63;;;20.60;99.90;;;;;;4988140;28;20031;-75
2022/08/26 03:16:07;;;;;;;10.07;6.97;;;20.60;99.90;;;;;;5002104;28;20042;-76
2022/08/26 03:18:33;;;;;;;10.88;6.80;;;20.60;99.90;;;;;;5007751;28;20042;-76
2022/08/26 03:21:07;;;;;;;9.60;7.10;;;20.50;99.90;;;;;;5004447;28;20026;-75
2022/08/26 03:23:33;;;;;;;10.80;7.05;;;20.30;99.90;;;;;;4986495;28;20026;-76
2022/08/26 03:25:59;;;;;;;9.35;6.75;;;20.30;99.90;;;;;;4987466;28;20030;-76
2022/08/26 03:28:25;;;;;;;9.50;6.20;;;20.20;99.90;;;;;;4986537;28;20023;-76
2022/08/26 03:30:51;;;;;;;11.57;7.33;;;20.20;99.90;;;;;;4997113;28;20093;-76
2022/08/26 03:33:17;;;;;;;11.52;6.32;;;20.30;99.90;;;;;;5007957;28;20038;-75
2022/08/26 03:35:44;;;;;;;8.57;5.32;;;20.30;99.90;;;;;;5009067;28;20030;-76
2022/08/26 03:38:10;;;;;;;9.48;6.03;;;20.40;99.90;;;;;;4994952;28;20474;-76
2022/08/26 03:40:36;;;;;;;9.90;5.93;;;20.50;99.90;;;;;;4990545;28;20043;-76
2022/08/26 03:43:04;;;;;;;12.38;6.78;;;20.60;99.90;;;;;;4991201;28;20038;-76
2022/08/26 03:45:30;;;;;;;11.70;6.22;;;20.60;99.90;;;;;;4995648;28;20043;-76
2022/08/26 03:47:56;;;;;;;11.13;6.27;;;20.60;99.90;;;;;;5010431;28;20034;-76
2022/08/26 03:50:22;;;;;;;9.15;6.22;;;20.60;99.90;;;;;;5009242;28;20037;-76
2022/08/26 03:52:50;;;;;;;10.30;5.57;;;20.60;99.90;;;;;;5008432;28;20086;-76
2022/08/26 03:55:16;;;;;;;11.02;5.75;;;20.60;99.90;;;;;;5010374;28;20515;-75
2022/08/26 03:57:42;;;;;;;14.88;6.38;;;20.60;99.90;;;;;;5009002;28;20037;-75
2022/08/26 04:00:13;;;;;;;8.17;5.80;;;20.60;99.90;;;;;;5009644;28;20068;-76
2022/08/26 04:02:39;;;;;;;11.05;6.45;;;20.60;99.90;;;;;;4991060;28;20034;-77
2022/08/26 04:05:05;;;;;;;10.07;6.37;;;20.70;99.90;;;;;;4991060;28;20022;-76
2022/08/26 04:07:31;;;;;;;7.97;5.85;;;20.60;99.90;;;;;;4997613;28;20734;-77
2022/08/26 04:09:57;;;;;;;9.40;6.17;;;20.60;99.90;;;;;;4998358;28;20049;-76
2022/08/26 04:12:24;;;;;;;9.82;6.82;;;20.50;99.90;;;;;;4990523;28;20079;-76
2022/08/26 04:14:51;;;;;;;;;;;20.40;99.90;;;;;;4991621;28;20041;-77
2022/08/26 04:17:17;;;;;;;9.50;6.22;;;20.40;99.90;;;;;;5004817;28;19909;-77
2022/08/26 04:19:44;;;;;;;10.30;6.50;;;20.30;99.90;;;;;;5010625;28;20465;-76
2022/08/26 04:22:10;;;;;;;10.35;6.95;;;20.30;99.90;;;;;;5007010;28;20481;-75
2022/08/26 04:24:38;;;;;;;11.57;6.72;;;20.30;99.90;;;;;;4989145;28;20095;-75
2022/08/26 04:27:04;;;;;;;9.60;6.50;;;20.40;99.90;;;;;;4990322;28;20112;-75
2022/08/26 04:29:30;;;;;;;9.88;6.72;;;20.40;99.90;;;;;;4988836;28;20061;-75
2022/08/26 04:31:56;;;;;;;10.70;6.47;;;20.40;99.90;;;;;;5000523;28;20552;-75
2022/08/26 04:34:27;;;;;;;12.93;6.23;;;20.40;99.90;;;;;;5008202;28;20038;-75
2022/08/26 04:36:53;;;;;;;10.45;6.93;;;20.40;99.90;;;;;;5008155;28;20026;-76
2022/08/26 04:39:19;;;;;;;10.97;6.83;;;20.50;99.90;;;;;;5005334;28;20086;-75
2022/08/26 04:41:46;;;;;;;9.48;6.00;;;20.50;99.90;;;;;;5008439;28;20046;-75
2022/08/26 04:44:14;;;;;;;8.80;6.32;;;20.60;99.90;;;;;;5009471;28;20473;-76
2022/08/26 04:46:40;;;;;;;11.00;7.00;;;20.70;99.90;;;;;;5002468;28;20105;-68
2022/08/26 04:49:07;;;;;;;10.33;6.00;;;20.70;99.90;;;;;;4987966;28;20118;-70
2022/08/26 04:51:35;;;;;;;;;;;20.80;99.90;;;;;;4989284;28;20096;-70
2022/08/26 04:54:01;;;;;;;10.40;6.45;;;20.80;99.90;;;;;;4989253;28;20008;-70
2022/08/26 04:56:34;;;;;;;8.05;6.03;;;20.90;99.90;;;;;;4989188;28;20034;-70
2022/08/26 04:59:02;;;;;;;9.60;6.13;;;20.90;99.90;;;;;;4989244;28;20070;-68
2022/08/26 05:01:30;;;;;;;9.50;5.90;;;21.00;99.90;;;;;;4991583;28;20447;-69
2022/08/26 05:03:56;;;;;;;12.88;5.93;;;21.00;99.90;;;;;;5008674;28;20058;-69
2022/08/26 05:06:23;;;;;;;9.88;6.05;;;21.00;99.90;;;;;;5006965;28;20026;-70
2022/08/26 05:08:48;;;;;;;12.93;6.25;;;21.10;99.90;;;;;;5007746;28;20104;-69
2022/08/26 05:11:14;;;;;;;9.07;5.63;;;21.20;99.90;;;;;;5008755;28;20076;-69
2022/08/26 05:13:40;;;;;;;9.55;5.85;;;21.20;99.90;;;;;;5008518;28;20049;-69
2022/08/26 05:16:09;;;;;;;9.30;6.30;;;21.30;99.90;;;;;;5008897;28;20056;-71
2022/08/26 05:18:35;;;;;;;9.65;6.10;;;21.20;99.90;;;;;;5007212;28;20072;-69
2022/08/26 05:21:01;;;;;;;9.52;6.43;;;21.20;99.90;;;;;;5008304;28;20033;-69
2022/08/26 05:23:30;;;;;;;9.90;6.60;;;21.30;99.90;;;;;;5002581;28;20027;-68
2022/08/26 05:25:57;;;;;;;9.70;6.05;;;21.30;99.90;;;;;;4988775;28;20110;-69
2022/08/26 05:28:23;;;;;;;;;;;21.30;99.90;;;;;;4989152;28;20401;-70
2022/08/26 05:30:49;;;;;;;12.32;6.22;;;21.30;99.90;;;;;;4990001;28;19913;-69
2022/08/26 05:33:15;;;;;;;11.73;5.95;;;21.40;99.90;;;;;;4989383;28;20493;-70
2022/08/26 05:35:42;;;;;;;;;;;21.50;99.90;;;;;;4989261;28;20109;-70
2022/08/26 05:38:12;;;;;;;10.07;6.13;;;21.50;99.90;;;;;;4989124;28;19905;-70
2022/08/26 05:40:40;;;;;;;9.80;6.10;;;21.50;99.90;;;;;;4968988;28;20402;-69
2022/08/26 05:43:09;;;;;;;9.80;5.63;;;21.50;99.90;;;;;;4969124;28;20031;-68
2022/08/26 05:45:42;;;;;;;9.02;6.00;;;21.60;99.90;;;;;;4969185;28;20023;-68
2022/08/26 05:48:08;;;;;;;9.00;5.47;;;21.70;99.90;;;;;;4991801;28;20018;-68
2022/08/26 05:50:42;;;;;;;10.80;5.87;;;21.80;99.90;;;;;;5007919;28;20038;-69
2022/08/26 05:53:10;;;;;;;8.93;5.90;;;21.90;99.90;;;;;;5006781;28;20034;-69
2022/08/26 05:55:47;;;;;;;10.70;6.68;;;22.10;99.90;;;;;;4989927;28;20034;-70
2022/08/26 05:58:13;;;;;;;12.90;7.05;;;22.20;99.90;;;;;;4988405;28;20030;-69
2022/08/26 06:00:40;;;;;;;12.25;6.13;;;22.30;99.90;;;;;;4988158;28;20037;-71
2022/08/26 06:03:07;;;;;;;10.75;6.30;;;22.30;99.90;;;;;;4997667;28;20065;-70
2022/08/26 06:05:38;;;;;;;9.00;6.28;;;22.40;99.90;;;;;;5007781;28;20026;-69
2022/08/26 06:08:10;;;;;;;9.30;5.82;;;22.40;99.90;;;;;;5006371;28;20026;-70
2022/08/26 06:10:47;;;;;;;11.75;5.63;;;22.50;99.90;;;;;;4990018;28;20034;-70
2022/08/26 06:13:13;;;;;;;;;;;22.60;99.90;;;;;;4988500;28;20057;-71
2022/08/26 06:15:43;;;;;;;10.77;6.38;;;22.70;99.90;;;;;;4987945;28;19913;-69
2022/08/26 06:18:08;;;;;;;8.50;5.57;;;22.80;99.90;;;;;;4988317;28;20111;-70
2022/08/26 06:20:35;;;;;;;8.85;5.72;;;22.90;99.90;;;;;;4986759;28;20064;-70
2022/08/26 06:25:47;;;;;;;10.45;5.70;;;23.10;99.90;;;;;;4989165;28;20049;-69
2022/08/26 06:28:13;;;;;;;10.48;6.07;;;23.20;99.90;;;;;;4988932;28;20030;-69
2022/08/26 06:30:40;;;;;;;11.75;6.45;;;23.30;99.90;;;;;;4987687;28;20389;-69
2022/08/26 06:33:06;;;;;;;;;;;23.30;99.90;;;;;;4993700;28;20033;-71
2022/08/26 06:35:40;;;;;;;11.63;5.53;;;23.40;99.90;;;;;;5007609;28;19920;-68
2022/08/26 06:38:07;;;;;;;11.98;5.55;;;23.30;99.90;;;;;;5007495;28;20032;-69
2022/08/26 06:40:39;;;;;;;8.50;5.85;;;23.40;99.90;;;;;;4993832;28;20184;-69
2022/08/26 06:43:04;;;;;;;9.68;5.20;;;23.40;99.90;;;;;;4987755;28;20022;-70
2022/08/26 06:45:30;;;;;;;11.37;4.70;;;23.60;99.90;;;;;;4987561;28;20029;-69
2022/08/26 06:47:56;;;;;;;9.50;5.53;;;23.70;99.90;;;;;;4992463;28;20382;-70
2022/08/26 06:50:21;;;;;;;11.67;5.23;;;23.70;99.90;;;;;;5007430;28;20033;-70
2022/08/26 06:52:47;;;;;;;10.93;5.50;;;23.70;99.90;;;;;;5007514;28;20025;-69
2022/08/26 06:55:13;;;;;;;11.23;5.80;;;23.70;99.90;;;;;;5000045;28;20064;-70
2022/08/26 06:57:38;;;;;;;10.63;5.57;;;23.70;99.90;;;;;;4996481;28;20032;-68
2022/08/26 07:00:11;;;;;;;9.07;5.47;;;23.70;99.90;;;;;;5007444;28;20084;-69
2022/08/26 07:02:38;;;;;;;11.27;5.20;;;23.80;99.90;;;;;;5005821;28;20080;-69
2022/08/26 07:05:05;;;;;;;14.25;5.78;;;23.90;99.70;;;;;;5006362;28;20042;-69
2022/08/26 07:07:30;;;;;;;9.45;5.05;;;24.00;99.40;;;;;;5007982;28;20049;-70
2022/08/26 07:09:56;;;;;;;12.37;5.13;;;24.20;99.30;;;;;;5006547;28;20030;-70
2022/08/26 07:12:22;;;;;;;11.40;5.50;;;24.30;99.40;;;;;;4991453;28;20385;-69
2022/08/26 07:14:48;;;;;;;10.53;5.07;;;24.40;99.70;;;;;;4991159;28;20053;-69
2022/08/26 07:17:14;;;;;;;10.00;5.13;;;24.60;99.50;;;;;;4989537;28;20035;-70
2022/08/26 07:19:40;;;;;;;8.02;4.63;;;24.70;98.30;;;;;;5001129;28;20493;-70
2022/08/26 07:22:06;;;;;;;10.77;5.10;;;24.90;98.50;;;;;;5010217;28;20028;-70
2022/08/26 07:24:39;;;;;;;11.90;5.38;;;24.90;98.00;;;;;;5010615;28;20764;-70
2022/08/26 07:27:08;;;;;;;16.85;5.28;;;25.00;97.30;;;;;;4971139;28;20061;-70
2022/08/26 07:29:35;;;;;;;10.27;4.47;;;25.20;96.30;;;;;;4987292;28;20041;-70
2022/08/26 07:32:01;;;;;;;10.30;4.70;;;25.30;95.30;;;;;;4991341;28;20022;-68
2022/08/26 07:34:27;;;;;;;10.10;4.30;;;25.40;94.30;;;;;;4990575;28;20379;-69
2022/08/26 07:36:53;;;;;;;11.68;5.13;;;25.50;94.30;;;;;;4990258;28;20065;-71
2022/08/26 07:39:20;;;;;;;14.47;5.10;;;25.60;94.30;;;;;;4991851;28;20045;-69
2022/08/26 07:41:46;;;;;;;12.52;5.15;;;25.70;94.10;;;;;;4992719;28;20047;-70
2022/08/26 07:44:13;;;;;;;15.20;5.07;;;25.90;93.90;;;;;;4990648;28;20068;-70
2022/08/26 07:46:39;;;;;;;12.02;4.57;;;25.90;93.30;;;;;;4988878;28;20030;-69
2022/08/26 07:49:05;;;;;;;12.88;4.78;;;26.00;93.50;;;;;;4989347;28;20111;-69
2022/08/26 07:51:32;;;;;;;7.18;5.07;;;26.10;93.60;;;;;;4990163;28;20035;-70
2022/08/26 07:53:57;;;;;;;7.75;4.63;;;26.20;93.20;;;;;;4989872;28;20034;-70
2022/08/26 07:56:24;;;;;;;9.20;4.80;;;26.30;93.30;;;;;;4990298;28;20462;-70
2022/08/26 07:58:51;;;;;;;15.73;5.10;;;26.40;93.40;;;;;;4990101;28;20058;-69
2022/08/26 08:01:18;;;;;;;9.45;4.82;;;26.60;93.30;;;;;;4989560;28;20031;-70
2022/08/26 08:03:44;;;;;;;10.52;5.75;;;26.60;92.00;;;;;;4995110;28;20042;-70
2022/08/26 08:06:09;;;;;;;10.50;4.90;;;26.70;92.40;;;;;;5009556;28;20026;-70
2022/08/26 08:08:35;;;;;;;12.37;5.10;;;26.80;92.30;;;;;;5009131;28;20022;-71
2022/08/26 08:11:01;;;;;;;9.98;4.80;;;27.00;92.30;;;;;;5007626;28;20026;-69
2022/08/26 08:13:28;;;;;;;10.13;5.30;;;27.10;91.90;;;;;;5007699;28;20417;-70
2022/08/26 08:15:53;;;;;;;11.40;5.20;;;27.30;91.70;;;;;;5009352;28;20389;-69
2022/08/26 08:18:19;;;;;;;8.80;4.40;;;27.30;91.40;;;;;;5008706;28;20037;-69
2022/08/26 08:20:46;;;;;;;9.05;4.00;;;27.30;91.00;;;;;;5008193;28;20817;-69
2022/08/26 08:23:13;;;;;;;8.40;4.53;;;27.40;91.40;;;;;;5009669;28;20076;-70
2022/08/26 08:25:39;;;;;;;10.00;4.05;;;27.50;91.40;;;;;;5008915;28;20503;-71
2022/08/26 08:28:05;;;;;;;12.40;4.43;;;27.70;91.10;;;;;;5009380;28;20021;-70
2022/08/26 08:30:30;;;;;;;7.97;3.80;;;27.90;91.00;;;;;;5009088;28;20029;-69
2022/08/26 08:32:56;;;;;;;11.37;3.77;;;28.10;87.30;;;;;;5008812;28;20113;-70
2022/08/26 08:35:22;;;;;;;15.33;4.33;;;28.30;85.60;;;;;;4992568;28;20042;-69
2022/08/26 08:37:53;;;;;;;8.57;3.60;;;28.40;82.40;;;;;;4987912;28;20454;-69
2022/08/26 08:40:19;;;;;;;7.32;3.25;;;28.40;83.20;;;;;;4990200;28;20160;-68
2022/08/26 08:42:45;;;;;;;12.75;4.40;;;28.50;82.60;;;;;;4990416;28;20054;-68
2022/08/26 08:45:26;;;;;;;11.13;3.23;;;28.70;82.30;;;;;;4989751;28;20081;-68
2022/08/26 08:47:56;;;;;;;9.65;3.78;;;29.00;81.60;;;;;;4989475;28;20023;-70
2022/08/26 08:50:27;;;;;;;10.88;3.25;;;29.40;79.70;;;;;;5000594;28;20030;-69
2022/08/26 08:53:21;;;;;;;7.25;3.50;;;29.60;78.50;;;;;;5008852;28;20493;-69
2022/08/26 08:56:02;;;;;;;13.35;3.60;;;29.70;76.50;;;;;;5004940;28;20423;-68
2022/08/26 08:58:42;;;;;;;7.10;2.97;;;29.50;74.80;;;;;;4989414;28;20385;-70
2022/08/26 09:01:16;;;;;;;6.60;2.92;;;29.50;76.20;;;;;;4989132;28;20042;-70
2022/08/26 09:04:03;;;;;;;10.95;3.95;;;29.70;76.70;;;;;;4988883;28;20083;-69
2022/08/26 09:06:29;;;;;;;8.32;3.15;;;30.00;74.20;;;;;;4969418;28;20545;-70
2022/08/26 09:08:56;;;;;;;11.35;3.30;;;30.20;74.10;;;;;;4969462;28;20031;-70
2022/08/26 09:11:21;;;;;;;;;;;30.40;73.50;;;;;;4994646;28;20550;-69
2022/08/26 09:13:52;;;;;;;11.55;3.35;;;30.70;72.50;;;;;;4995907;28;19918;-69
2022/08/26 09:16:44;;;;;;;9.38;3.33;;;30.80;71.10;;;;;;5008376;28;20041;-71
2022/08/26 09:19:36;;;;;;;6.30;3.05;;;30.80;71.40;;;;;;5006704;28;20402;-71
2022/08/26 09:22:02;;;;;;;8.02;2.67;;;31.00;71.70;;;;;;5007812;28;20026;-69
2022/08/26 09:24:29;;;;;;;6.85;2.45;;;31.20;68.20;;;;;;5005856;28;20113;-68
2022/08/26 09:26:57;;;;;;;9.82;2.20;;;30.90;66.10;;;;;;5006565;28;20531;-69
2022/08/26 09:29:34;;;;;;;9.02;2.47;;;30.30;64.10;;;;;;5007807;28;20045;-69
2022/08/26 09:32:23;;;;;;;12.20;2.40;;;30.20;64.80;;;;;;5006818;28;20034;-69
2022/08/26 09:35:22;;;;;;;7.20;2.38;;;29.90;62.00;;;;;;4990611;28;20095;-68
2022/08/26 09:37:48;;;;;;;3.80;2.10;;;29.90;62.00;;;;;;4981462;28;20061;-69
2022/08/26 09:40:27;;;;;;;4.65;2.13;;;30.10;61.50;;;;;;4988635;28;20082;-69
2022/08/26 09:43:05;;;;;;;8.02;2.40;;;30.00;61.40;;;;;;4982294;28;20022;-70
2022/08/26 09:45:31;;;;;;;5.35;2.08;;;30.10;60.50;;;;;;4986051;28;20439;-70
2022/08/26 09:47:57;;;;;;;8.50;2.37;;;30.00;60.50;;;;;;4986557;28;20031;-69
2022/08/26 09:50:22;;;;;;;6.38;2.08;;;30.10;61.10;;;;;;4989309;28;20033;-69
2022/08/26 09:53:13;;;;;;;8.15;1.92;;;30.30;61.40;;;;;;4979385;28;20030;-69
2022/08/26 09:55:41;;;;;;;4.97;2.17;;;30.40;59.50;;;;;;5003298;28;20068;-69
2022/08/26 09:58:11;;;;;;;9.85;2.05;;;30.40;59.40;;;;;;4986904;28;20051;-68
2022/08/26 10:00:39;;;;;;;6.85;2.42;;;30.40;59.80;;;;;;4987886;28;20044;-69
2022/08/26 10:03:10;;;;;;;5.05;2.05;;;30.50;60.00;;;;;;4992775;28;20473;-69
2022/08/26 10:05:42;;;;;;;6.85;2.10;;;30.50;59.40;;;;;;5000917;28;20224;-69
2022/08/26 10:08:39;;;;;;;9.15;2.10;;;30.70;59.30;;;;;;4978206;28;20101;-68
2022/08/26 10:11:16;;;;;;;6.03;1.92;;;30.90;59.30;;;;;;5024410;28;20086;-68
2022/08/26 10:13:47;;;;;;;4.47;2.00;;;31.00;57.50;;;;;;5012695;28;20439;-69
2022/08/26 10:16:32;;;;;;;7.40;2.20;;;31.20;57.10;;;;;;5008012;28;20057;-70
2022/08/26 10:19:00;;;;;;;6.72;2.15;;;31.30;56.30;;;;;;4998733;28;20069;-69
2022/08/26 10:21:34;;;;;;;5.53;2.28;;;31.30;55.90;;;;;;4982654;28;20390;-70
2022/08/26 10:24:02;;;;;;;5.78;2.25;;;31.20;56.60;;;;;;4987541;28;20101;-70
2022/08/26 10:26:56;;;;;;;7.28;1.67;;;31.30;55.50;;;;;;4989219;28;20026;-70
2022/08/26 10:29:34;;;;;;;10.55;1.77;;;31.40;54.80;;;;;;5006388;28;20049;-69
2022/08/26 10:32:09;;;;;;;3.38;1.80;;;31.70;53.90;;;;;;5077874;28;20465;-69
2022/08/26 10:34:34;;;;;;;6.88;1.77;;;32.00;53.00;;;;;;4982801;28;20035;-69
2022/08/26 10:37:09;;;;;;;5.10;1.50;;;32.20;52.00;;;;;;4980630;28;20087;-70
2022/08/26 10:40:01;;;;;;;5.10;1.45;;;32.20;50.40;;;;;;4987312;28;20045;-70
2022/08/26 10:42:45;;;;;;;3.15;1.30;;;32.20;49.00;;;;;;4991232;28;20500;-69
2022/08/26 10:45:18;;;;;;;5.18;1.73;;;32.30;49.20;;;;;;4975932;28;20041;-70
2022/08/26 10:47:50;;;;;;;2.38;1.35;;;32.40;49.70;;;;;;4970796;28;20031;-69
2022/08/26 10:50:17;;;;;;;6.07;2.20;;;32.20;49.70;;;;;;4971779;28;20038;-69
2022/08/26 10:52:58;;;;;;;4.38;1.67;;;32.10;48.80;;;;;;4985714;28;20381;-68
2022/08/26 10:55:49;;;;;;;5.97;2.10;;;32.20;50.20;;;;;;4981637;28;20125;-69
2022/08/26 10:58:34;;;;;;;7.00;2.20;;;32.60;50.10;;;;;;4985522;28;20023;-68
2022/08/26 11:04:32;;;;;;;3.40;1.30;;;32.70;48.80;;;;;;4978800;28;20060;-70
2022/08/26 11:07:36;;;;;;;4.40;1.70;;;32.80;48.60;;;;;;4980062;28;20037;-69
2022/08/26 11:10:07;;;;;;;3.83;1.88;;;32.90;48.40;;;;;;4987009;28;20132;-69
2022/08/26 11:12:35;;;;;;;5.20;1.83;;;33.40;48.60;;;;;;4987063;28;20030;-70
2022/08/26 11:15:07;;;;;;;5.13;1.98;;;33.70;48.50;;;;;;4993695;28;20069;-69
2022/08/26 11:17:45;;;;;;;6.03;2.05;;;33.60;49.10;;;;;;4987297;28;20496;-70
2022/08/26 11:20:28;;;;;;;9.88;2.35;;;33.70;49.20;;;;;;4987384;28;20350;-69
2022/08/26 11:23:14;;;;;;;6.88;2.00;;;33.60;49.00;;;;;;4987089;28;20481;-69
2022/08/26 11:25:55;;;;;;;7.70;1.95;;;33.60;48.70;;;;;;4974423;28;20061;-70
2022/08/26 11:28:37;;;;;;;7.47;2.25;;;33.60;49.30;;;;;;4967871;28;20054;-69
2022/08/26 11:31:07;;;;;;;10.98;2.13;;;33.40;49.60;;;;;;4967503;28;20107;-69
2022/08/26 11:34:12;;;;;;;6.55;2.50;;;33.20;50.40;;;;;;4986810;28;20584;-69
2022/08/26 11:36:41;;;;;;;7.88;2.38;;;32.90;50.90;;;;;;4969992;28;20042;-69
2022/08/26 11:39:22;;;;;;;7.90;2.50;;;32.80;51.60;;;;;;5003026;28;20043;-69
2022/08/26 11:41:51;;;;;;;7.72;2.13;;;32.90;51.60;;;;;;4989684;28;20109;-69
2022/08/26 11:44:41;;;;;;;5.60;2.60;;;32.50;51.50;;;;;;4980482;28;20474;-69
2022/08/26 11:47:09;;;;;;;6.57;2.58;;;32.40;51.50;;;;;;4986818;28;20037;-70
2022/08/26 11:49:36;;;;;;;6.25;2.20;;;32.50;52.10;;;;;;4992517;28;20030;-69
2022/08/26 11:52:11;;;;;;;10.15;2.92;;;32.90;52.60;;;;;;5006224;28;20026;-68
2022/08/26 11:54:36;;;;;;;19.35;2.72;;;32.80;49.90;;;;;;4981694;28;20499;-69
2022/08/26 11:57:04;;;;;;;17.30;1.90;;;32.60;47.80;;;;;;4995094;28;20032;-69
2022/08/26 11:59:37;;;;;;;9.40;2.03;;;32.30;48.00;;;;;;4977076;28;20038;-68
2022/08/26 12:02:09;;;;;;;7.13;2.00;;;32.00;48.40;;;;;;4970969;28;20660;-69
2022/08/26 12:04:37;;;;;;;6.30;1.77;;;31.70;47.90;;;;;;4974412;28;20346;-69
2022/08/26 12:07:06;;;;;;;6.13;1.73;;;31.50;48.10;;;;;;4988911;28;20025;-70
2022/08/26 12:09:35;;;;;;;3.70;1.48;;;31.60;47.90;;;;;;4970566;28;20035;-69
2022/08/26 12:12:22;;;;;;;6.47;2.30;;;31.40;48.40;;;;;;4990222;28;20124;-69
2022/08/26 12:14:48;;;;;;;9.27;1.73;;;31.10;49.40;;;;;;5004576;28;20042;-69
2022/08/26 12:17:15;;;;;;;4.22;1.50;;;30.90;49.10;;;;;;5009072;28;20290;-69
2022/08/26 12:19:42;;;;;;;3.47;1.20;;;30.90;49.60;;;;;;5004656;28;20073;-71
2022/08/26 12:22:26;;;;;;;4.00;1.65;;;31.00;49.30;;;;;;4989609;28;20031;-71
2022/08/26 12:24:57;;;;;;;4.32;1.70;;;30.90;49.50;;;;;;4989354;28;20042;-71
2022/08/26 12:27:35;;;;;;;5.85;1.90;;;31.00;49.70;;;;;;5000519;28;20086;-69
2022/08/26 12:30:21;;;;;;;5.68;2.00;;;31.00;49.70;;;;;;5005859;28;20536;-69
2022/08/26 12:32:50;;;;;;;9.35;2.25;;;31.10;50.10;;;;;;5009328;28;20022;-70
2022/08/26 12:35:19;;;;;;;7.85;2.13;;;31.00;50.60;;;;;;5002038;28;20065;-70
2022/08/26 12:37:51;;;;;;;6.43;2.10;;;30.70;49.60;;;;;;4989131;28;20029;-70
2022/08/26 12:40:44;;;;;;;9.38;2.67;;;30.40;50.20;;;;;;4988954;28;20055;-70
2022/08/26 12:43:15;;;;;;;7.35;2.50;;;30.30;51.30;;;;;;5006231;28;20049;-70
2022/08/26 12:45:54;;;;;;;5.88;1.80;;;30.40;51.90;;;;;;4969328;28;20073;-69
2022/08/26 12:48:32;;;;;;;6.10;2.40;;;30.20;51.40;;;;;;4969788;28;20050;-69
2022/08/26 12:50:59;;;;;;;3.97;1.92;;;30.30;51.60;;;;;;4988506;28;20052;-70
2022/08/26 12:53:27;;;;;;;6.75;2.08;;;30.10;51.70;;;;;;5008399;28;20036;-70
2022/08/26 12:55:56;;;;;;;5.43;2.10;;;30.00;52.40;;;;;;5008652;28;20477;-69
2022/08/26 12:58:38;;;;;;;6.65;2.35;;;29.90;52.60;;;;;;5006985;28;20439;-69
2022/08/26 13:01:05;;;;;;;6.47;2.20;;;30.00;52.50;;;;;;4969748;28;20457;-69
2022/08/26 13:03:33;;;;;;;;;;;29.90;52.90;;;;;;4970043;28;20102;-69
2022/08/26 13:06:25;;;;;;;5.43;2.20;;;29.80;52.50;;;;;;4978766;28;19916;-69